Terminal Aerodrome Forecast
Issued by NWS Sioux Falls, SD

Home | Current Version | Previous Version | Graphics & Text | Print | Product List | Glossary On
Versions: 1 2 3 4 5 6 7 8 9 10 11 12 13 14 15 16
514
FTUS43 KFSD 240520
TAFFSD
TAF
KFSD 240520Z 2406/2506 02021G29KT 1SM BLSN OVC010
      TEMPO 2406/2408 1/2SM SN BLSN
     FM241100 01021G33KT 2SM -SN BLSN BKN025
     FM241400 36019G31KT 6SM BLSN OVC080
     FM241800 35019G31KT P6SM BKN150
     FM250200 34014G20KT P6SM SCT250=

USA.gov is the U.S. government's official web portal to all federal, state and local government web resources and services.